Nyk Deneb — 3EOF8 — position and weather

sailwx.info

Track history (hours):
 
Tides and Currents Weather Stations Pressure Air Temp Water Temp Dewpoint Dewpoint Depression Visibility Wind Speed Wind Dir Waves Ship Positions

Nyk Deneb

Last reported at 2015-Mar-23 06:23 UTC. Time now 2015-Apr-01 01:08 UTC.
Position N 25°33' W 115°00'.
Warning: this ship's position is 8 days out of date.

Length 294 m; draft 11.3 m.

Type: Ship (hazmat cat B). MMSI: 355717000.

Date/timePositionNaut miles runAvg speedWind from/ knotsBaromVisibWave heightAir tempDewpointWater temp
2015-Mar-23 06:23N 25°33' W 115°00'2513.6
2015-Mar-23 04:32N 25°48' W 115°23'1313.5
2015-Mar-23 03:33N 25°56' W 115°35'1413.8
2015-Mar-23 02:33N 26°04' W 115°47'1413.7
2015-Mar-23 01:33N 26°12' W 115°59'1413.8
2015-Mar-23 00:33N 26°20' W 116°12'1413.8
2015-Mar-22 23:33N 26°29' W 116°24'1413.5
2015-Mar-22 22:32N 26°37' W 116°36'1513.5
2015-Mar-22 21:23N 26°46' W 116°50'1113.4
2015-Mar-22 20:33N 26°53' W 117°00'1413.6
2015-Mar-22 19:33N 27°01' W 117°13'1413.5
2015-Mar-22 18:32N 27°09' W 117°25'1413.4
2015-Mar-22 17:31N 27°17' W 117°38'1313.3
2015-Mar-22 16:33N 27°24' W 117°49'1413.3
2015-Mar-22 15:31N 27°33' W 118°02'1313.2
2015-Mar-22 14:33N 27°40' W 118°13'3213.3
2015-Mar-22 12:08N 27°59' W 118°42'1013.9
2015-Mar-22 11:24N 28°05' W 118°52'1213.9
2015-Mar-22 10:31N 28°13' W 119°03'2713.8
2015-Mar-22 08:33N 28°29' W 119°28'1413.8
2015-Mar-22 07:32N 28°37' W 119°40'1313.7
2015-Mar-22 06:33N 28°45' W 119°53'1413.6
2015-Mar-22 05:33N 28°53' W 120°05'1513.8
2015-Mar-22 04:28N 29°02' W 120°19'1313.8
2015-Mar-22 03:33N 29°10' W 120°31'1413.9
2015-Mar-22 02:33N 29°18' W 120°43'1413.8
2015-Mar-22 01:33N 29°26' W 120°56'1413.7
2015-Mar-22 00:33N 29°34' W 121°09'1413.9
2015-Mar-21 23:33N 29°42' W 121°22'1413.9
2015-Mar-21 22:33N 29°51' W 121°35'1413.9
2015-Mar-21 21:33N 29°59' W 121°47'1413.9
2015-Mar-21 20:33N 30°06' W 122°01'1413.7
2015-Mar-21 19:33N 30°14' W 122°14'1413.8
2015-Mar-21 18:33N 30°21' W 122°28'1413.8
2015-Mar-21 17:33N 30°28' W 122°41'1414.0
2015-Mar-21 16:33N 30°36' W 122°55'1414.0
2015-Mar-21 15:33N 30°43' W 123°09'1413.9
2015-Mar-21 14:34N 30°51' W 123°23'1413.7
2015-Mar-21 13:33N 30°58' W 123°36'1414.0
2015-Mar-21 12:34N 31°05' W 123°50'1413.7
2015-Mar-21 11:33N 31°12' W 124°04'1414.0
2015-Mar-21 10:33N 31°19' W 124°18'1413.9
2015-Mar-21 09:33N 31°27' W 124°32'1413.9
2015-Mar-21 08:34N 31°33' W 124°46'1414.1
2015-Mar-21 07:33N 31°41' W 124°60'1414.0
2015-Mar-21 06:33N 31°48' W 125°14'1413.9
2015-Mar-21 05:33N 31°55' W 125°28'1413.8
2015-Mar-21 04:33N 32°02' W 125°42'1413.7
2015-Mar-21 03:30N 32°09' W 125°57'1614.0
2015-Mar-21 02:23N 32°17' W 126°13'1213.9
2015-Mar-21 01:33N 32°23' W 126°25'2019.7
2015-Mar-21 00:33N 32°33' W 126°45'2221.9
2015-Mar-20 23:33N 32°43' W 127°07'2117.3
2015-Mar-20 22:23N 32°54' W 127°28'  
Track history (hours):
 
Tides and Currents Weather Stations Pressure Air Temp Water Temp Dewpoint Dewpoint Depression Visibility Wind Speed Wind Dir Waves Ship Positions

Nyk Deneb

Last reported at 2015-Mar-23 06:23 UTC. Time now 2015-Apr-01 01:08 UTC.
Position N 25°33' W 115°00'.
Warning: this ship's position is 8 days out of date.

Length 294 m; draft 11.3 m.

Type: Ship (hazmat cat B). MMSI: 355717000.

Date/timePositionNaut miles runAvg speedWind from/ knotsBaromVisibWave heightAir tempDewpointWater temp
2015-Mar-23 06:23N 25°33' W 115°00'2513.6
2015-Mar-23 04:32N 25°48' W 115°23'1313.5
2015-Mar-23 03:33N 25°56' W 115°35'1413.8
2015-Mar-23 02:33N 26°04' W 115°47'1413.7
2015-Mar-23 01:33N 26°12' W 115°59'1413.8
2015-Mar-23 00:33N 26°20' W 116°12'1413.8
2015-Mar-22 23:33N 26°29' W 116°24'1413.5
2015-Mar-22 22:32N 26°37' W 116°36'1513.5
2015-Mar-22 21:23N 26°46' W 116°50'1113.4
2015-Mar-22 20:33N 26°53' W 117°00'1413.6
2015-Mar-22 19:33N 27°01' W 117°13'1413.5
2015-Mar-22 18:32N 27°09' W 117°25'1413.4
2015-Mar-22 17:31N 27°17' W 117°38'1313.3
2015-Mar-22 16:33N 27°24' W 117°49'1413.3
2015-Mar-22 15:31N 27°33' W 118°02'1313.2
2015-Mar-22 14:33N 27°40' W 118°13'3213.3
2015-Mar-22 12:08N 27°59' W 118°42'1013.9
2015-Mar-22 11:24N 28°05' W 118°52'1213.9
2015-Mar-22 10:31N 28°13' W 119°03'2713.8
2015-Mar-22 08:33N 28°29' W 119°28'1413.8
2015-Mar-22 07:32N 28°37' W 119°40'1313.7
2015-Mar-22 06:33N 28°45' W 119°53'1413.6
2015-Mar-22 05:33N 28°53' W 120°05'1513.8
2015-Mar-22 04:28N 29°02' W 120°19'1313.8
2015-Mar-22 03:33N 29°10' W 120°31'1413.9
2015-Mar-22 02:33N 29°18' W 120°43'1413.8
2015-Mar-22 01:33N 29°26' W 120°56'1413.7
2015-Mar-22 00:33N 29°34' W 121°09'1413.9
2015-Mar-21 23:33N 29°42' W 121°22'1413.9
2015-Mar-21 22:33N 29°51' W 121°35'1413.9
2015-Mar-21 21:33N 29°59' W 121°47'1413.9
2015-Mar-21 20:33N 30°06' W 122°01'1413.7
2015-Mar-21 19:33N 30°14' W 122°14'1413.8
2015-Mar-21 18:33N 30°21' W 122°28'1413.8
2015-Mar-21 17:33N 30°28' W 122°41'1414.0
2015-Mar-21 16:33N 30°36' W 122°55'1414.0
2015-Mar-21 15:33N 30°43' W 123°09'1413.9
2015-Mar-21 14:34N 30°51' W 123°23'1413.7
2015-Mar-21 13:33N 30°58' W 123°36'1414.0
2015-Mar-21 12:34N 31°05' W 123°50'1413.7
2015-Mar-21 11:33N 31°12' W 124°04'1414.0
2015-Mar-21 10:33N 31°19' W 124°18'1413.9
2015-Mar-21 09:33N 31°27' W 124°32'1413.9
2015-Mar-21 08:34N 31°33' W 124°46'1414.1
2015-Mar-21 07:33N 31°41' W 124°60'1414.0
2015-Mar-21 06:33N 31°48' W 125°14'1413.9
2015-Mar-21 05:33N 31°55' W 125°28'1413.8
2015-Mar-21 04:33N 32°02' W 125°42'1413.7
2015-Mar-21 03:30N 32°09' W 125°57'1614.0
2015-Mar-21 02:23N 32°17' W 126°13'1213.9
2015-Mar-21 01:33N 32°23' W 126°25'2019.7
2015-Mar-21 00:33N 32°33' W 126°45'2221.9
2015-Mar-20 23:33N 32°43' W 127°07'2117.3
2015-Mar-20 22:23N 32°54' W 127°28'  

Dump ship's entire track history